Time;durP1;ratioP1;P1;durP2;ratioP2;P2;SDS_P1;SDS_P2;PMS_P1;PMS_P2;Temp;Humidity;BMP_temperature;BMP_pressure;BME280_temperature;BME280_humidity;BME280_pressure;Samples;Min_cycle;Max_cycle;Signal;HPM_P1;HPM_P2
2023/10/21 00:03:10;;;;;;;1999.90;999.90;;;;;;;17.94;76.25;98275.47;10539511;28;20050;-64
2023/10/21 00:08:13;;;;;;;1999.90;999.90;;;;;;;17.97;74.96;98283.81;10539232;28;20055;-63
2023/10/21 00:13:15;;;;;;;1999.90;999.90;;;;;;;17.75;77.94;98280.44;10539225;28;20040;-63
2023/10/21 00:18:17;;;;;;;1999.90;999.90;;;;;;;18.25;74.77;98284.75;10521073;28;20052;-63
2023/10/21 00:23:21;;;;;;;1999.90;999.90;;;;;;;17.50;76.17;98290.69;10543012;28;20404;-63
2023/10/21 00:28:23;;;;;;;1999.90;999.90;;;;;;;18.27;74.44;98291.44;10528511;28;20048;-63
2023/10/21 00:33:25;;;;;;;1999.90;999.90;;;;;;;17.91;74.98;98303.13;10545717;28;20080;-63
2023/10/21 00:38:28;;;;;;;1999.90;999.90;;;;;;;17.49;79.65;98307.53;10545520;28;20056;-63
2023/10/21 00:43:40;;;;;;;1999.90;999.90;;;;;;;18.29;75.97;98323.03;10545384;28;20040;-63
2023/10/21 00:48:43;;;;;;;1999.90;999.90;;;;;;;18.42;74.66;98328.38;10545851;28;20052;-63
2023/10/21 00:53:47;;;;;;;1999.90;999.90;;;;;;;18.03;77.10;98339.66;10526931;28;20481;-62
2023/10/21 00:58:50;;;;;;;1999.90;999.90;;;;;;;18.07;75.30;98340.88;10527517;28;20076;-63
2023/10/21 01:03:53;;;;;;;1999.90;999.90;;;;;;;18.12;76.84;98347.25;10545187;28;20051;-62
2023/10/21 01:08:55;;;;;;;1999.90;999.90;;;;;;;18.08;75.50;98359.22;10527114;28;20050;-62
2023/10/21 01:13:58;;;;;;;1999.90;999.90;;;;;;;18.45;74.46;98356.31;10544184;28;20454;-63
2023/10/21 01:19:00;;;;;;;1999.90;999.90;;;;;;;18.05;77.14;98362.25;10544022;28;20082;-63
2023/10/21 01:24:02;;;;;;;1999.90;999.90;;;;;;;17.82;77.10;98363.31;10544459;28;20072;-63
2023/10/21 01:29:09;;;;;;;1999.90;999.90;;;;;;;18.31;74.25;98366.88;10544397;28;20055;-63
2023/10/21 01:34:12;;;;;;;1999.90;999.90;;;;;;;17.07;79.97;98375.34;10542700;28;20409;-63
2023/10/21 01:39:15;;;;;;;1999.90;999.90;;;;;;;17.84;78.54;98384.31;10543064;28;20497;-63
2023/10/21 01:44:18;;;;;;;1999.90;999.90;;;;;;;17.81;77.36;98379.41;10543630;28;20096;-63
2023/10/21 01:49:21;;;;;;;1999.90;999.90;;;;;;;17.37;77.30;98376.03;10542740;28;20401;-63
2023/10/21 01:54:24;;;;;;;1999.90;999.90;;;;;;;17.68;77.89;98384.59;10542434;28;20059;-62
2023/10/21 01:59:26;;;;;;;1999.90;999.90;;;;;;;18.68;73.66;98385.16;10524997;28;20059;-63
2023/10/21 02:04:28;;;;;;;1999.90;999.90;;;;;;;18.04;76.29;98387.09;10542769;28;20044;-62
2023/10/21 02:09:31;;;;;;;1999.90;999.90;;;;;;;18.38;75.62;98394.19;10524545;28;20048;-63
2023/10/21 02:14:34;;;;;;;1999.90;999.90;;;;;;;18.13;75.48;98398.34;10542261;28;20097;-63
2023/10/21 02:19:36;;;;;;;1999.90;999.90;;;;;;;19.01;72.98;98400.34;10541772;28;20048;-63
2023/10/21 02:24:39;;;;;;;1999.90;999.90;;;;;;;18.55;73.93;98412.41;10542172;28;20052;-63
2023/10/21 02:29:41;;;;;;;1999.90;999.90;;;;;;;18.33;77.54;98417.81;10541002;28;20477;-62
2023/10/21 02:34:44;;;;;;;1999.90;999.90;;;;;;;18.63;72.76;98408.78;10540924;28;20076;-63
2023/10/21 02:39:46;;;;;;;1999.90;999.90;;;;;;;18.45;71.93;98414.59;10541401;28;20122;-63
2023/10/21 02:44:52;;;;;;;1999.90;999.90;;;;;;;18.97;74.48;98422.97;10540497;28;20060;-63
2023/10/21 02:49:55;;;;;;;1999.90;999.90;;;;;;;18.51;74.94;98427.88;10522547;28;20439;-63
2023/10/21 02:54:58;;;;;;;1999.90;999.90;;;;;;;18.19;75.31;98446.06;10540900;28;20085;-63
2023/10/21 03:00:00;;;;;;;1999.90;999.90;;;;;;;18.52;75.33;98452.53;10540085;28;20097;-62
2023/10/21 03:05:05;;;;;;;1999.90;999.90;;;;;;;18.30;76.24;98460.56;10540661;28;20091;-63
2023/10/21 03:10:07;;;;;;;1999.90;999.90;;;;;;;18.30;77.45;98467.72;10540504;28;20044;-63
2023/10/21 03:15:10;;;;;;;1999.90;999.90;;;;;;;18.24;76.47;98469.31;10540434;28;20126;-63
2023/10/21 03:20:12;;;;;;;1999.90;999.90;;;;;;;18.36;76.96;98474.88;10505212;28;20480;-63
2023/10/21 03:25:15;;;;;;;1999.90;999.90;;;;;;;18.04;78.69;98481.59;10540151;28;20135;-63
2023/10/21 03:30:17;;;;;;;1999.90;999.90;;;;;;;18.15;79.04;98489.00;10540032;28;20052;-63
2023/10/21 03:35:20;;;;;;;1999.90;999.90;;;;;;;18.62;78.36;98489.28;10539524;28;20059;-63
2023/10/21 03:40:23;;;;;;;1999.90;999.90;;;;;;;18.46;77.47;98491.25;10539837;28;20046;-63
2023/10/21 03:45:25;;;;;;;1999.90;999.90;;;;;;;17.74;78.80;98498.44;10539288;28;20052;-63
2023/10/21 03:50:27;;;;;;;1999.90;999.90;;;;;;;18.22;79.46;98508.41;10539569;28;20131;-63
2023/10/21 03:55:30;;;;;;;1999.90;999.90;;;;;;;17.63;80.02;98515.66;10539173;28;20485;-62
2023/10/21 04:00:32;;;;;;;1999.90;999.90;;;;;;;18.37;76.11;98525.03;10547122;28;20048;-63
2023/10/21 04:05:35;;;;;;;1999.90;999.90;;;;;;;18.33;78.09;98529.06;10547154;28;20409;-63
2023/10/21 04:10:37;;;;;;;1999.90;999.90;;;;;;;18.79;76.28;98532.97;10546702;28;20690;-63
2023/10/21 04:15:39;;;;;;;1999.90;999.90;;;;;;;18.39;77.64;98546.00;10546530;28;20052;-63
2023/10/21 04:20:44;;;;;;;1999.90;999.90;;;;;;;17.74;81.28;98554.00;10546997;28;20127;-63
2023/10/21 04:25:47;;;;;;;1999.90;999.90;;;;;;;18.33;77.00;98550.25;10546783;28;20081;-63
2023/10/21 04:30:49;;;;;;;1999.90;999.90;;;;;;;18.27;77.31;98560.78;10545881;28;20520;-63
2023/10/21 04:35:52;;;;;;;1999.90;999.90;;;;;;;18.33;76.38;98579.38;10545630;28;20479;-63
2023/10/21 04:40:54;;;;;;;1999.90;999.90;;;;;;;18.16;77.39;98585.97;10546229;28;20048;-63
2023/10/21 04:45:57;;;;;;;1999.90;999.90;;;;;;;18.42;75.42;98584.53;10546022;28;20074;-63
2023/10/21 04:50:59;;;;;;;1999.90;999.90;;;;;;;18.33;76.08;98605.06;10545677;28;20058;-63
2023/10/21 04:56:03;;;;;;;1999.90;999.90;;;;;;;18.43;76.36;98615.34;10545023;28;20048;-63
2023/10/21 05:01:05;;;;;;;1999.90;999.90;;;;;;;18.08;77.73;98628.47;10545503;28;20068;-63
2023/10/21 05:06:08;;;;;;;1999.90;999.90;;;;;;;18.16;79.32;98639.75;10510089;28;20059;-63
2023/10/21 05:11:10;;;;;;;1999.90;999.90;;;;;;;18.44;77.13;98635.50;10526078;28;20051;-63
2023/10/21 05:16:12;;;;;;;1999.90;999.90;;;;;;;18.24;77.99;98643.28;10526190;28;20488;-63
2023/10/21 05:21:15;;;;;;;1999.90;999.90;;;;;;;18.35;80.17;98650.72;10526718;28;20133;-63
2023/10/21 05:26:18;;;;;;;1999.90;999.90;;;;;;;18.59;76.88;98656.63;10525866;28;20599;-63
2023/10/21 05:31:21;;;;;;;1999.90;999.90;;;;;;;18.78;75.34;98663.91;10543696;28;20070;-63
2023/10/21 05:36:27;;;;;;;1999.90;999.90;;;;;;;18.74;77.51;98676.72;10543141;28;20054;-63
2023/10/21 05:41:29;;;;;;;1999.90;999.90;;;;;;;18.93;74.73;98666.50;10543788;28;20048;-63
2023/10/21 05:46:31;;;;;;;1999.90;999.90;;;;;;;18.75;74.75;98682.84;10543542;28;20044;-63
2023/10/21 05:51:34;;;;;;;1999.90;999.90;;;;;;;19.08;71.49;98687.56;10543289;28;20055;-63
2023/10/21 05:56:36;;;;;;;1999.90;999.90;;;;;;;18.86;72.30;98710.69;10543402;28;20047;-63
2023/10/21 06:01:38;;;;;;;1999.90;999.90;;;;;;;18.42;74.61;98723.13;10542901;28;20048;-63
2023/10/21 06:06:41;;;;;;;1999.90;999.90;;;;;;;17.93;75.96;98740.53;10542481;28;20507;-63
2023/10/21 06:11:43;;;;;;;1999.90;999.90;;;;;;;17.93;73.98;98742.38;10542485;28;20123;-63
2023/10/21 06:16:46;;;;;;;1999.90;999.90;;;;;;;18.19;72.21;98752.44;10541731;28;20386;-63
2023/10/21 06:21:48;;;;;;;1999.90;999.90;;;;;;;18.61;72.84;98761.44;10542197;28;20058;-63
2023/10/21 06:26:50;;;;;;;1999.90;999.90;;;;;;;18.14;74.36;98766.25;10542002;28;20128;-63
2023/10/21 06:31:53;;;;;;;1999.90;999.90;;;;;;;18.23;75.20;98777.53;10541640;28;20040;-63
2023/10/21 06:36:55;;;;;;;1999.90;999.90;;;;;;;18.20;74.77;98783.22;10540815;28;20414;-63
2023/10/21 06:41:58;;;;;;;1999.90;999.90;;;;;;;18.56;73.86;98787.69;10541535;28;20085;-63
2023/10/21 06:47:00;;;;;;;1999.90;999.90;;;;;;;18.30;78.13;98794.31;10506826;28;20101;-63
2023/10/21 06:52:02;;;;;;;1999.90;999.90;;;;;;;18.40;77.23;98809.09;10540940;28;20058;-63
2023/10/21 06:57:05;;;;;;;1999.90;999.90;;;;;;;18.76;76.42;98822.31;10522942;28;20044;-62
2023/10/21 07:02:08;;;;;;;1999.90;999.90;;;;;;;18.99;75.23;98821.34;10540676;28;20056;-63
2023/10/21 07:07:10;;;;;;;1999.90;999.90;;;;;;;18.81;76.96;98842.94;10540816;28;20128;-63
2023/10/21 07:12:12;;;;;;;1999.90;999.90;;;;;;;19.21;75.77;98853.97;10540349;28;20048;-63
2023/10/21 07:17:15;;;;;;;1999.90;999.90;;;;;;;19.30;73.29;98869.56;10540527;28;20051;-68
2023/10/21 07:22:17;;;;;;;1999.90;999.90;;;;;;;18.80;77.51;98873.94;10539577;28;20539;-62
2023/10/21 07:27:20;;;;;;;1999.90;999.90;;;;;;;18.84;79.13;98879.72;10539414;28;20435;-62
2023/10/21 07:32:23;;;;;;;1999.90;999.90;;;;;;;19.18;78.64;98887.00;10520775;28;20097;-63
2023/10/21 07:37:26;;;;;;;1999.90;999.90;;;;;;;18.28;82.65;98899.66;10539472;28;20131;-62
2023/10/21 07:42:31;;;;;;;1999.90;999.90;;;;;;;19.08;81.07;98907.69;10522555;28;20048;-63
2023/10/21 07:47:36;;;;;;;1999.90;999.90;;;;;;;19.04;81.02;98909.09;10539725;28;20076;-62
2023/10/21 07:52:38;;;;;;;1999.90;999.90;;;;;;;19.22;78.85;98913.97;10432397;22;20054;-63
2023/10/21 07:57:41;;;;;;;1999.90;999.90;;;;;;;18.95;82.07;98919.00;10350195;28;20072;-63
2023/10/21 08:02:43;;;;;;;1999.90;999.90;;;;;;;18.22;86.94;98940.09;10368006;28;20125;-63
2023/10/21 08:07:46;;;;;;;1999.90;999.90;;;;;;;18.55;87.64;98963.56;10350497;28;20058;-63
2023/10/21 08:12:49;;;;;;;1999.90;999.90;;;;;;;18.13;85.25;98980.94;10367695;28;20053;-63
2023/10/21 08:17:51;;;;;;;1999.90;999.90;;;;;;;18.78;81.33;98994.44;10367665;28;20077;-63
2023/10/21 08:22:53;;;;;;;1999.90;999.90;;;;;;;18.57;83.46;98991.53;10349587;28;20448;-63
2023/10/21 08:27:56;;;;;;;1999.90;999.90;;;;;;;18.78;82.66;98989.97;10367383;28;20058;-63
2023/10/21 08:32:58;;;;;;;1999.90;999.90;;;;;;;19.89;81.50;99007.44;10366523;28;20482;-63
2023/10/21 08:38:00;;;;;;;1999.90;999.90;;;;;;;19.79;83.09;99019.22;10349852;28;20133;-63
2023/10/21 08:43:04;;;;;;;1999.90;999.90;;;;;;;20.90;79.14;99023.84;10367367;28;20557;-63
2023/10/21 08:48:09;;;;;;;1999.90;999.90;;;;;;;20.87;72.66;99020.78;10355890;28;20054;-63
2023/10/21 08:53:12;;;;;;;1999.90;999.90;;;;;;;20.75;74.35;99039.13;10355810;28;20054;-63
2023/10/21 08:58:15;;;;;;;1999.90;999.90;;;;;;;21.32;75.05;99040.56;10372777;28;20056;-63
2023/10/21 09:03:18;;;;;;;1999.90;999.90;;;;;;;22.16;71.25;99051.75;10372713;28;20486;-63
2023/10/21 09:08:31;;;;;;;1999.90;999.90;;;;;;;20.92;72.98;99075.00;10355244;28;20482;-63
2023/10/21 09:13:40;;;;;;;1999.90;999.90;;;;;;;20.65;72.89;99079.38;10355760;28;20045;-63
2023/10/21 09:18:59;;;;;;;1999.90;999.90;;;;;;;21.00;70.42;99095.31;10355498;28;20049;-63
2023/10/21 09:24:04;;;;;;;1999.90;999.90;;;;;;;21.65;71.69;99100.28;10372723;28;20056;-63
2023/10/21 09:29:11;;;;;;;1999.90;999.90;;;;;;;21.06;72.28;99110.47;10371931;28;20053;-63
2023/10/21 09:34:41;;;;;;;1999.90;999.90;;;;;;;23.18;67.39;99094.88;10355006;28;20042;-63
2023/10/21 09:39:44;;;;;;;1999.90;999.90;;;;;;;24.47;65.75;99104.53;10368849;28;20057;-63
2023/10/21 09:44:48;;;;;;;1999.90;999.90;;;;;;;23.36;65.55;99115.53;10354719;28;20049;-63
2023/10/21 09:49:53;;;;;;;1999.90;999.90;;;;;;;24.74;63.58;99104.31;10354568;28;20060;-63
2023/10/21 09:55:08;;;;;;;1999.90;999.90;;;;;;;24.00;57.45;99107.56;10353221;28;20383;-63
2023/10/21 10:00:11;;;;;;;1999.90;999.90;;;;;;;24.00;62.39;99120.13;10353546;28;20486;-63
2023/10/21 10:05:16;;;;;;;1999.90;999.90;;;;;;;24.66;57.62;99124.13;10370851;28;20053;-63
2023/10/21 10:10:21;;;;;;;1999.90;999.90;;;;;;;25.67;54.73;99121.97;10370640;28;20402;-63
2023/10/21 10:15:40;;;;;;;1999.90;999.90;;;;;;;24.87;55.62;99136.28;10353076;28;20124;-63
2023/10/21 10:20:48;;;;;;;1999.90;999.90;;;;;;;25.83;54.43;99135.75;10370881;28;20078;-63
2023/10/21 10:25:54;;;;;;;1999.90;999.90;;;;;;;24.51;55.73;99135.16;10352864;28;20486;-63
2023/10/21 10:30:57;;;;;;;1999.90;999.90;;;;;;;23.04;58.48;99162.63;10370459;28;20091;-62
2023/10/21 10:36:00;;;;;;;1999.90;999.90;;;;;;;23.69;56.81;99188.53;10369781;28;20542;-63
2023/10/21 10:41:09;;;;;;;1999.90;999.90;;;;;;;22.55;59.91;99175.44;10353138;28;20046;-63
2023/10/21 10:46:22;;;;;;;1999.90;999.90;;;;;;;22.23;57.02;99193.84;10353355;28;20133;-63
2023/10/21 10:51:27;;;;;;;1999.90;999.90;;;;;;;23.71;60.71;99189.94;10352249;28;20133;-63
2023/10/21 10:56:48;;;;;;;1999.90;999.90;;;;;;;24.56;53.36;99188.03;10369806;28;20053;-63
2023/10/21 11:01:57;;;;;;;1999.90;999.90;;;;;;;24.37;54.43;99205.84;10352861;28;20057;-63
2023/10/21 11:07:03;;;;;;;1999.90;999.90;;;;;;;24.52;57.44;99213.56;10367853;28;20082;-63
2023/10/21 11:12:05;;;;;;;1999.90;999.90;;;;;;;24.46;53.90;99193.81;10368607;28;20125;-63
2023/10/21 11:17:12;;;;;;;1999.90;999.90;;;;;;;24.77;51.57;99201.00;10351901;28;20054;-63
2023/10/21 11:22:26;;;;;;;1999.90;999.90;;;;;;;23.96;52.27;99194.59;10369065;28;20072;-63
2023/10/21 11:27:29;;;;;;;1999.90;999.90;;;;;;;25.46;53.67;99194.78;10335969;28;20056;-63
2023/10/21 11:32:32;;;;;;;1999.90;999.90;;;;;;;25.33;49.46;99195.75;10351410;28;20042;-63
2023/10/21 11:37:34;;;;;;;1999.90;999.90;;;;;;;24.28;52.67;99208.78;10368166;28;20383;-63
2023/10/21 11:42:38;;;;;;;1999.90;999.90;;;;;;;25.06;50.93;99236.16;10351489;28;20046;-63
2023/10/21 11:47:40;;;;;;;1999.90;999.90;;;;;;;23.44;53.22;99231.97;10351085;28;20054;-63
2023/10/21 11:52:44;;;;;;;1999.90;999.90;;;;;;;21.80;53.98;99243.94;10367858;28;20061;-62
2023/10/21 12:19:46;;;;;;;1999.90;999.90;;;;;;;22.25;54.93;99262.94;10331426;28;20487;-67
2023/10/21 12:45:32;;;;;;;1999.90;999.90;;;;;;;21.78;53.25;99264.63;10355966;28;20049;-67
2023/10/21 12:50:37;;;;;;;1999.90;999.90;;;;;;;21.25;55.65;99263.31;10357699;28;20049;-66
2023/10/21 12:55:39;;;;;;;1999.90;999.90;;;;;;;21.52;55.55;99258.97;10356205;28;20046;-67
2023/10/21 13:00:43;;;;;;;1999.90;999.90;;;;;;;21.22;57.28;99266.34;10373412;28;20056;-68
2023/10/21 13:05:46;;;;;;;1999.90;999.90;;;;;;;22.06;54.80;99257.34;10372665;28;20486;-68
2023/10/21 13:10:49;;;;;;;1999.90;999.90;;;;;;;21.27;53.19;99253.28;10373144;28;20052;-67
2023/10/21 13:15:51;;;;;;;1999.90;999.90;;;;;;;21.11;53.82;99259.69;10372873;28;20050;-67
2023/10/21 13:20:54;;;;;;;1999.90;999.90;;;;;;;20.46;55.17;99258.94;10372810;28;20063;-67
2023/10/21 13:25:57;;;;;;;1999.90;999.90;;;;;;;20.85;56.49;99267.50;10372648;28;20057;-67
2023/10/21 13:30:59;;;;;;;1999.90;999.90;;;;;;;21.31;54.72;99264.34;10371685;28;20056;-67
2023/10/21 13:36:06;;;;;;;1999.90;999.90;;;;;;;21.60;56.68;99259.81;10354774;28;20502;-68
2023/10/21 13:41:09;;;;;;;1999.90;999.90;;;;;;;20.91;54.08;99253.41;10372213;28;20130;-68
2023/10/21 13:46:11;;;;;;;1999.90;999.90;;;;;;;21.30;55.99;99252.88;10354069;28;20129;-68
2023/10/21 13:51:14;;;;;;;1999.90;999.90;;;;;;;21.73;54.52;99259.91;10353782;28;20066;-68
2023/10/21 13:56:16;;;;;;;1999.90;999.90;;;;;;;21.09;56.23;99250.28;10371143;28;20505;-67
2023/10/21 14:01:19;;;;;;;1999.90;999.90;;;;;;;20.44;55.22;99260.16;10371709;28;20144;-67
2023/10/21 14:06:21;;;;;;;1999.90;999.90;;;;;;;20.76;55.80;99259.66;10371492;28;20050;-68
2023/10/21 14:11:24;;;;;;;1999.90;999.90;;;;;;;20.93;51.83;99268.19;10371226;28;20046;-67
2023/10/21 14:16:27;;;;;;;1999.90;999.90;;;;;;;20.72;57.00;99274.34;10353190;28;20405;-68
2023/10/21 14:21:33;;;;;;;1999.90;999.90;;;;;;;20.73;55.62;99273.34;10371038;28;20050;-67
2023/10/21 14:26:36;;;;;;;1999.90;999.90;;;;;;;20.58;55.33;99270.72;10353015;28;20413;-67
2023/10/21 14:31:38;;;;;;;1999.90;999.90;;;;;;;21.61;54.34;99270.28;10369929;28;20067;-67
2023/10/21 14:36:41;;;;;;;1999.90;999.90;;;;;;;20.76;54.81;99288.91;10352484;28;20058;-67
2023/10/21 14:41:43;;;;;;;1999.90;999.90;;;;;;;20.00;55.45;99293.81;10369564;28;20143;-67
2023/10/21 14:46:47;;;;;;;1999.90;999.90;;;;;;;19.85;57.52;99296.47;10352265;28;20136;-67
2023/10/21 14:51:50;;;;;;;1999.90;999.90;;;;;;;20.11;59.91;99301.31;10369163;28;20452;-67
2023/10/21 14:56:52;;;;;;;1999.90;999.90;;;;;;;20.09;59.32;99316.59;10369314;28;20410;-67
2023/10/21 15:01:55;;;;;;;1999.90;999.90;;;;;;;19.86;58.83;99303.44;10368948;28;20128;-68
2023/10/21 15:06:58;;;;;;;1999.90;999.90;;;;;;;19.92;58.93;99316.00;10369554;28;20050;-67
2023/10/21 15:12:00;;;;;;;1999.90;999.90;;;;;;;19.66;58.35;99305.81;10369274;28;20056;-67
2023/10/21 15:17:03;;;;;;;1999.90;999.90;;;;;;;19.97;56.67;99326.03;10369192;28;20049;-68
2023/10/21 15:22:06;;;;;;;1999.90;999.90;;;;;;;20.06;57.43;99327.59;10351210;28;20401;-67
2023/10/21 15:27:08;;;;;;;1999.90;999.90;;;;;;;19.78;58.65;99328.25;10335597;28;20054;-67
2023/10/21 15:32:11;;;;;;;1999.90;999.90;;;;;;;20.00;58.39;99326.50;10368119;28;20445;-68
2023/10/21 15:37:14;;;;;;;1999.90;999.90;;;;;;;19.15;58.89;99318.91;10368106;28;20490;-67
2023/10/21 15:42:19;;;;;;;1999.90;999.90;;;;;;;19.54;58.03;99325.84;10367950;28;20500;-67
2023/10/21 15:47:22;;;;;;;1999.90;999.90;;;;;;;20.04;57.60;99332.28;10368469;28;20057;-68
2023/10/21 15:52:24;;;;;;;1999.90;999.90;;;;;;;19.56;58.06;99337.94;10352012;28;20046;-67
2023/10/21 15:57:27;;;;;;;1999.90;999.90;;;;;;;19.90;57.92;99347.19;10357590;28;20046;-69
2023/10/21 16:02:29;;;;;;;1999.90;999.90;;;;;;;19.58;57.44;99349.19;10374731;28;20486;-68
2023/10/21 16:07:32;;;;;;;1999.90;999.90;;;;;;;19.91;57.02;99350.69;10374595;28;20053;-67
2023/10/21 16:12:54;;;;;;;1999.90;999.90;;;;;;;19.33;58.79;99363.69;10360354;28;20046;-68
2023/10/21 16:17:56;;;;;;;1999.90;999.90;;;;;;;19.85;56.87;99374.34;10374230;28;20133;-69
2023/10/21 16:22:59;;;;;;;1999.90;999.90;;;;;;;19.91;57.75;99372.75;10340595;28;20482;-67
2023/10/21 16:28:01;;;;;;;1999.90;999.90;;;;;;;19.62;58.88;99386.84;10373965;28;20405;-67
2023/10/21 16:33:05;;;;;;;1999.90;999.90;;;;;;;19.02;61.15;99389.31;10374298;28;20133;-68
2023/10/21 16:38:07;;;;;;;1999.90;999.90;;;;;;;19.78;61.19;99404.44;10374255;28;20053;-67
2023/10/21 16:43:09;;;;;;;1999.90;999.90;;;;;;;19.68;63.66;99420.59;10374073;28;20050;-67
2023/10/21 16:48:13;;;;;;;1999.90;999.90;;;;;;;19.27;64.90;99418.31;10373881;28;20085;-66
2023/10/21 16:53:15;;;;;;;1999.90;999.90;;;;;;;18.89;65.02;99426.19;10373060;28;20129;-67
2023/10/21 16:58:18;;;;;;;1999.90;999.90;;;;;;;18.64;65.51;99431.59;10373544;28;20045;-67
2023/10/21 17:03:20;;;;;;;1999.90;999.90;;;;;;;18.83;65.27;99426.88;10371562;28;20510;-67
2023/10/21 17:08:23;;;;;;;1999.90;999.90;;;;;;;19.33;65.47;99438.81;10373236;28;20077;-67
2023/10/21 17:13:25;;;;;;;1999.90;999.90;;;;;;;19.61;64.23;99446.22;10355829;28;20050;-68
2023/10/21 17:18:28;;;;;;;1999.90;999.90;;;;;;;19.42;65.06;99455.53;10354940;28;20076;-66
2023/10/21 17:23:30;;;;;;;1999.90;999.90;;;;;;;19.43;63.31;99449.19;10372722;28;20126;-67
2023/10/21 17:28:32;;;;;;;1999.90;999.90;;;;;;;19.14;61.77;99439.31;10372595;28;20054;-67
2023/10/21 17:33:35;;;;;;;1999.90;999.90;;;;;;;18.73;65.10;99458.91;10372380;28;20046;-67
2023/10/21 17:38:52;;;;;;;1999.90;999.90;;;;;;;19.06;63.06;99451.63;10372369;28;20052;-67
2023/10/21 17:43:54;;;;;;;1999.90;999.90;;;;;;;19.02;62.81;99455.63;10371544;28;20050;-66
2023/10/21 17:48:56;;;;;;;1999.90;999.90;;;;;;;19.31;63.46;99457.56;10354033;28;20053;-66
2023/10/21 17:53:59;;;;;;;1999.90;999.90;;;;;;;18.69;63.57;99458.44;10371069;28;20080;-66
2023/10/21 17:59:05;;;;;;;1999.90;999.90;;;;;;;18.85;63.35;99456.72;10353805;28;20049;-66
2023/10/21 18:04:07;;;;;;;1999.90;999.90;;;;;;;19.02;63.39;99446.84;10370989;28;20546;-68
2023/10/21 18:09:10;;;;;;;1999.90;999.90;;;;;;;18.98;61.76;99459.63;10371337;28;20102;-66
2023/10/21 18:14:13;;;;;;;1999.90;999.90;;;;;;;18.68;62.52;99459.44;10370266;28;20134;-66
2023/10/21 18:19:15;;;;;;;1999.90;999.90;;;;;;;19.13;59.74;99459.69;10370939;28;20124;-66
2023/10/21 18:24:17;;;;;;;1999.90;999.90;;;;;;;19.23;60.22;99455.00;10370194;28;20049;-67
2023/10/21 18:29:20;;;;;;;1999.90;999.90;;;;;;;18.96;61.98;99455.50;10370752;28;20085;-67
2023/10/21 18:34:22;;;;;;;1999.90;999.90;;;;;;;19.16;60.84;99461.16;10370485;28;20053;-67
2023/10/21 18:39:24;;;;;;;1999.90;999.90;;;;;;;19.05;61.21;99459.75;10369820;28;20504;-67
2023/10/21 18:44:27;;;;;;;1999.90;999.90;;;;;;;18.78;61.23;99453.91;10370535;28;20057;-67
2023/10/21 18:49:29;;;;;;;1999.90;999.90;;;;;;;18.87;62.13;99457.38;10352837;28;20058;-67
2023/10/21 18:54:31;;;;;;;1999.90;999.90;;;;;;;18.75;61.78;99473.63;10369209;28;20052;-66
2023/10/21 18:59:37;;;;;;;1999.90;999.90;;;;;;;18.87;60.93;99468.81;10352445;28;20100;-67
2023/10/21 19:04:39;;;;;;;1999.90;999.90;;;;;;;19.17;61.56;99474.25;10353070;28;20054;-67
2023/10/21 19:09:42;;;;;;;1999.90;999.90;;;;;;;18.90;61.61;99479.06;10352231;28;20054;-67
2023/10/21 19:14:47;;;;;;;1999.90;999.90;;;;;;;17.91;63.94;99475.91;10352294;28;20042;-66
2023/10/21 19:19:50;;;;;;;1999.90;999.90;;;;;;;18.44;63.82;99478.94;10369280;28;20050;-67
2023/10/21 19:24:53;;;;;;;1999.90;999.90;;;;;;;19.12;61.13;99476.63;10351175;28;20458;-66
2023/10/21 19:29:55;;;;;;;1999.90;999.90;;;;;;;18.70;61.26;99485.78;10368065;28;20054;-66
2023/10/21 19:34:58;;;;;;;1999.90;999.90;;;;;;;18.66;62.95;99492.41;10368779;28;20054;-67
2023/10/21 19:40:00;;;;;;;1999.90;999.90;;;;;;;18.73;62.02;99474.81;10368724;28;20082;-67
2023/10/21 19:45:03;;;;;;;1999.90;999.90;;;;;;;18.62;63.31;99472.56;10350593;28;20413;-67
2023/10/21 19:50:07;;;;;;;1999.90;999.90;;;;;;;18.42;62.35;99486.19;10367891;28;20084;-65
2023/10/21 19:55:09;;;;;;;1999.90;999.90;;;;;;;18.65;61.02;99480.16;10350998;28;20128;-67
2023/10/21 20:00:12;;;;;;;1999.90;999.90;;;;;;;18.62;62.46;99486.63;10350287;28;20520;-67
2023/10/21 20:05:16;;;;;;;1999.90;999.90;;;;;;;18.52;63.62;99486.81;10404647;23;20534;-66
2023/10/21 20:10:20;;;;;;;1999.90;999.90;;;;;;;18.77;61.81;99480.59;10521390;28;20403;-66
2023/10/21 20:15:22;;;;;;;1999.90;999.90;;;;;;;18.64;61.69;99492.56;10539261;28;20052;-66
2023/10/21 20:20:25;;;;;;;1999.90;999.90;;;;;;;18.77;60.91;99470.81;10538583;28;20416;-66
2023/10/21 20:25:27;;;;;;;1999.90;999.90;;;;;;;18.70;61.58;99477.81;10539097;28;20052;-66
2023/10/21 20:30:30;;;;;;;1999.90;999.90;;;;;;;18.33;62.89;99473.97;10520620;28;20481;-66
2023/10/21 20:35:32;;;;;;;1999.90;999.90;;;;;;;18.57;61.53;99465.09;10521024;28;20044;-67
2023/10/21 20:40:37;;;;;;;1999.90;999.90;;;;;;;19.05;60.98;99473.03;10526372;28;20044;-67
2023/10/21 20:45:39;;;;;;;1999.90;999.90;;;;;;;18.42;61.89;99464.19;10545770;28;20056;-66
2023/10/21 20:50:42;;;;;;;1999.90;999.90;;;;;;;18.38;62.37;99463.69;10546146;28;20054;-67
2023/10/21 20:55:45;;;;;;;1999.90;999.90;;;;;;;18.40;62.51;99464.34;10545810;28;20080;-66
2023/10/21 21:00:47;;;;;;;1999.90;999.90;;;;;;;18.89;60.24;99458.84;10545730;28;20054;-66
2023/10/21 21:05:50;;;;;;;1999.90;999.90;;;;;;;18.50;61.60;99458.84;10544777;28;20099;-66
2023/10/21 21:10:53;;;;;;;1999.90;999.90;;;;;;;18.56;61.20;99463.47;10544643;28;20451;-66
2023/10/21 21:15:57;;;;;;;1999.90;999.90;;;;;;;18.82;61.43;99454.38;10544410;28;20548;-66
2023/10/21 21:21:00;;;;;;;1999.90;999.90;;;;;;;18.85;60.64;99446.94;10526926;28;20131;-66
2023/10/21 21:26:04;;;;;;;1999.90;999.90;;;;;;;18.68;61.37;99469.22;10544052;28;20059;-66
2023/10/21 21:31:07;;;;;;;1999.90;999.90;;;;;;;18.50;62.34;99457.00;10543879;28;20051;-66
2023/10/21 21:36:09;;;;;;;1999.90;999.90;;;;;;;18.03;61.82;99471.06;10543595;28;20048;-66
2023/10/21 21:41:19;;;;;;;1999.90;999.90;;;;;;;18.43;62.54;99473.78;10526448;28;20051;-66
2023/10/21 21:46:22;;;;;;;1999.90;999.90;;;;;;;18.22;61.34;99477.00;10525936;28;20128;-66
2023/10/21 21:51:24;;;;;;;1999.90;999.90;;;;;;;18.56;61.94;99482.84;10542932;28;20055;-66
2023/10/21 21:56:27;;;;;;;1999.90;999.90;;;;;;;18.28;61.76;99478.97;10508566;28;20488;-66
2023/10/21 22:01:31;;;;;;;1999.90;999.90;;;;;;;18.58;61.44;99482.66;10543322;28;20127;-66
2023/10/21 22:06:34;;;;;;;1999.90;999.90;;;;;;;17.96;63.30;99492.09;10542636;28;20054;-66
2023/10/21 22:11:37;;;;;;;1999.90;999.90;;;;;;;18.14;63.78;99496.38;10525012;28;20056;-66
2023/10/21 22:16:40;;;;;;;1999.90;999.90;;;;;;;18.34;63.60;99502.97;10524752;28;20136;-66
2023/10/21 22:21:44;;;;;;;1999.90;999.90;;;;;;;18.33;63.62;99503.13;10541882;28;20044;-66
2023/10/21 22:26:48;;;;;;;1999.90;999.90;;;;;;;18.37;65.11;99501.78;10525101;28;20072;-66
2023/10/21 22:31:54;;;;;;;1999.90;999.90;;;;;;;18.28;65.46;99487.75;10542131;28;20052;-66
2023/10/21 22:36:56;;;;;;;1999.90;999.90;;;;;;;18.20;65.16;99495.69;10541246;28;20126;-66
2023/10/21 22:41:58;;;;;;;1999.90;999.90;;;;;;;18.44;64.50;99507.22;10541716;28;20043;-66
2023/10/21 22:47:02;;;;;;;1999.90;999.90;;;;;;;18.66;64.10;99500.34;10523582;28;20040;-66
2023/10/21 22:52:05;;;;;;;1999.90;999.90;;;;;;;18.71;63.57;99495.34;10523071;28;20517;-68
2023/10/21 22:57:07;;;;;;;1999.90;999.90;;;;;;;18.74;64.00;99517.06;10523203;28;20051;-68